sensor_id;sensor_type;location;lat;lon;timestamp;P1;durP1;ratioP1;P2;durP2;ratioP2
67804;SDS011;54603;45.638;11.714;2023-03-05T00:02:23;12.20;;;9.40;;
67804;SDS011;54603;45.638;11.714;2023-03-05T00:04:49;13.00;;;9.40;;
67804;SDS011;54603;45.638;11.714;2023-03-05T00:07:14;11.40;;;9.30;;
67804;SDS011;54603;45.638;11.714;2023-03-05T00:09:42;12.90;;;8.90;;
67804;SDS011;54603;45.638;11.714;2023-03-05T00:12:07;12.50;;;8.80;;
67804;SDS011;54603;45.638;11.714;2023-03-05T00:14:33;11.90;;;8.80;;
67804;SDS011;54603;45.638;11.714;2023-03-05T00:16:59;11.00;;;9.00;;
67804;SDS011;54603;45.638;11.714;2023-03-05T00:19:25;14.70;;;9.70;;
67804;SDS011;54603;45.638;11.714;2023-03-05T00:21:50;12.00;;;9.10;;
67804;SDS011;54603;45.638;11.714;2023-03-05T00:24:17;11.50;;;9.20;;
67804;SDS011;54603;45.638;11.714;2023-03-05T00:26:43;12.50;;;9.50;;
67804;SDS011;54603;45.638;11.714;2023-03-05T00:29:10;10.70;;;8.60;;
67804;SDS011;54603;45.638;11.714;2023-03-05T00:31:39;11.50;;;8.50;;
67804;SDS011;54603;45.638;11.714;2023-03-05T00:34:05;10.70;;;9.10;;
67804;SDS011;54603;45.638;11.714;2023-03-05T00:36:37;10.80;;;9.00;;
67804;SDS011;54603;45.638;11.714;2023-03-05T00:39:04;11.80;;;9.00;;
67804;SDS011;54603;45.638;11.714;2023-03-05T00:41:30;12.50;;;9.00;;
67804;SDS011;54603;45.638;11.714;2023-03-05T00:44:02;11.30;;;9.20;;
67804;SDS011;54603;45.638;11.714;2023-03-05T00:46:30;14.20;;;9.50;;
67804;SDS011;54603;45.638;11.714;2023-03-05T00:48:56;11.30;;;9.20;;
67804;SDS011;54603;45.638;11.714;2023-03-05T00:51:22;10.80;;;9.10;;
67804;SDS011;54603;45.638;11.714;2023-03-05T00:53:48;12.00;;;9.10;;
67804;SDS011;54603;45.638;11.714;2023-03-05T00:56:15;12.30;;;9.40;;
67804;SDS011;54603;45.638;11.714;2023-03-05T00:58:43;10.40;;;8.90;;
67804;SDS011;54603;45.638;11.714;2023-03-05T01:01:09;12.50;;;8.40;;
67804;SDS011;54603;45.638;11.714;2023-03-05T01:03:35;10.30;;;8.60;;
67804;SDS011;54603;45.638;11.714;2023-03-05T01:06:03;11.10;;;9.20;;
67804;SDS011;54603;45.638;11.714;2023-03-05T01:08:34;11.40;;;8.90;;
67804;SDS011;54603;45.638;11.714;2023-03-05T01:11:07;12.50;;;9.30;;
67804;SDS011;54603;45.638;11.714;2023-03-05T01:13:35;13.20;;;10.20;;
67804;SDS011;54603;45.638;11.714;2023-03-05T01:16:04;11.50;;;9.30;;
67804;SDS011;54603;45.638;11.714;2023-03-05T01:18:31;13.80;;;9.60;;
67804;SDS011;54603;45.638;11.714;2023-03-05T01:20:58;12.10;;;9.00;;
67804;SDS011;54603;45.638;11.714;2023-03-05T01:23:24;12.70;;;8.80;;
67804;SDS011;54603;45.638;11.714;2023-03-05T01:25:56;10.80;;;9.10;;
67804;SDS011;54603;45.638;11.714;2023-03-05T01:28:24;12.90;;;9.30;;
67804;SDS011;54603;45.638;11.714;2023-03-05T01:30:50;13.90;;;9.20;;
67804;SDS011;54603;45.638;11.714;2023-03-05T01:33:17;11.30;;;8.80;;
67804;SDS011;54603;45.638;11.714;2023-03-05T01:35:45;12.40;;;9.00;;
67804;SDS011;54603;45.638;11.714;2023-03-05T01:38:11;11.40;;;9.10;;
67804;SDS011;54603;45.638;11.714;2023-03-05T01:40:37;10.70;;;8.80;;
67804;SDS011;54603;45.638;11.714;2023-03-05T01:46:27;11.10;;;9.20;;
67804;SDS011;54603;45.638;11.714;2023-03-05T01:48:36;11.10;;;9.40;;
67804;SDS011;54603;45.638;11.714;2023-03-05T01:51:03;14.40;;;10.10;;
67804;SDS011;54603;45.638;11.714;2023-03-05T01:53:30;13.50;;;9.80;;
67804;SDS011;54603;45.638;11.714;2023-03-05T01:55:56;13.10;;;9.70;;
67804;SDS011;54603;45.638;11.714;2023-03-05T01:58:22;12.00;;;9.10;;
67804;SDS011;54603;45.638;11.714;2023-03-05T02:00:49;12.70;;;9.60;;
67804;SDS011;54603;45.638;11.714;2023-03-05T02:03:18;11.40;;;9.30;;
67804;SDS011;54603;45.638;11.714;2023-03-05T02:05:46;12.50;;;9.40;;
67804;SDS011;54603;45.638;11.714;2023-03-05T02:08:16;12.30;;;9.50;;
67804;SDS011;54603;45.638;11.714;2023-03-05T02:10:44;12.40;;;9.50;;
67804;SDS011;54603;45.638;11.714;2023-03-05T02:13:12;11.10;;;9.30;;
67804;SDS011;54603;45.638;11.714;2023-03-05T02:15:40;11.10;;;9.50;;
67804;SDS011;54603;45.638;11.714;2023-03-05T02:18:06;11.60;;;9.40;;
67804;SDS011;54603;45.638;11.714;2023-03-05T02:20:44;12.40;;;9.40;;
67804;SDS011;54603;45.638;11.714;2023-03-05T02:23:15;11.70;;;9.00;;
67804;SDS011;54603;45.638;11.714;2023-03-05T02:25:42;12.60;;;9.70;;
67804;SDS011;54603;45.638;11.714;2023-03-05T02:28:14;13.30;;;9.90;;
67804;SDS011;54603;45.638;11.714;2023-03-05T02:30:46;11.90;;;9.10;;
67804;SDS011;54603;45.638;11.714;2023-03-05T02:33:12;12.10;;;9.90;;
67804;SDS011;54603;45.638;11.714;2023-03-05T02:35:38;12.00;;;9.50;;
67804;SDS011;54603;45.638;11.714;2023-03-05T02:38:04;12.20;;;9.90;;
67804;SDS011;54603;45.638;11.714;2023-03-05T02:40:30;11.60;;;9.60;;
67804;SDS011;54603;45.638;11.714;2023-03-05T02:42:55;11.00;;;9.30;;
67804;SDS011;54603;45.638;11.714;2023-03-05T02:45:21;11.90;;;9.50;;
67804;SDS011;54603;45.638;11.714;2023-03-05T02:47:46;13.10;;;9.70;;
67804;SDS011;54603;45.638;11.714;2023-03-05T02:50:13;12.70;;;9.90;;
67804;SDS011;54603;45.638;11.714;2023-03-05T02:52:38;12.30;;;9.60;;
67804;SDS011;54603;45.638;11.714;2023-03-05T02:55:05;12.20;;;9.60;;
67804;SDS011;54603;45.638;11.714;2023-03-05T02:57:31;12.90;;;9.70;;
67804;SDS011;54603;45.638;11.714;2023-03-05T02:59:56;12.70;;;10.40;;
67804;SDS011;54603;45.638;11.714;2023-03-05T03:02:22;11.30;;;9.50;;
67804;SDS011;54603;45.638;11.714;2023-03-05T03:04:47;11.00;;;9.60;;
67804;SDS011;54603;45.638;11.714;2023-03-05T03:07:13;12.40;;;10.10;;
67804;SDS011;54603;45.638;11.714;2023-03-05T03:09:39;11.80;;;9.80;;
67804;SDS011;54603;45.638;11.714;2023-03-05T03:12:07;10.70;;;9.00;;
67804;SDS011;54603;45.638;11.714;2023-03-05T03:14:37;12.40;;;9.40;;
67804;SDS011;54603;45.638;11.714;2023-03-05T03:19:34;12.60;;;9.40;;
67804;SDS011;54603;45.638;11.714;2023-03-05T03:22:00;11.40;;;9.80;;
67804;SDS011;54603;45.638;11.714;2023-03-05T03:24:26;12.00;;;9.90;;
67804;SDS011;54603;45.638;11.714;2023-03-05T03:26:51;12.50;;;10.20;;
67804;SDS011;54603;45.638;11.714;2023-03-05T03:29:17;11.90;;;10.20;;
67804;SDS011;54603;45.638;11.714;2023-03-05T03:31:43;11.50;;;9.20;;
67804;SDS011;54603;45.638;11.714;2023-03-05T03:34:10;12.60;;;9.70;;
67804;SDS011;54603;45.638;11.714;2023-03-05T03:36:37;13.40;;;10.10;;
67804;SDS011;54603;45.638;11.714;2023-03-05T03:39:03;11.40;;;9.50;;
67804;SDS011;54603;45.638;11.714;2023-03-05T03:41:30;12.10;;;9.90;;
67804;SDS011;54603;45.638;11.714;2023-03-05T03:43:56;12.90;;;9.90;;
67804;SDS011;54603;45.638;11.714;2023-03-05T03:46:22;12.70;;;9.50;;
67804;SDS011;54603;45.638;11.714;2023-03-05T03:48:51;12.90;;;9.70;;
67804;SDS011;54603;45.638;11.714;2023-03-05T03:51:16;16.00;;;10.20;;
67804;SDS011;54603;45.638;11.714;2023-03-05T03:53:42;12.20;;;9.60;;
67804;SDS011;54603;45.638;11.714;2023-03-05T03:56:08;14.00;;;10.20;;
67804;SDS011;54603;45.638;11.714;2023-03-05T03:58:34;12.50;;;10.00;;
67804;SDS011;54603;45.638;11.714;2023-03-05T04:00:59;12.10;;;9.80;;
67804;SDS011;54603;45.638;11.714;2023-03-05T04:03:25;12.20;;;9.70;;
67804;SDS011;54603;45.638;11.714;2023-03-05T04:05:51;12.20;;;10.00;;
67804;SDS011;54603;45.638;11.714;2023-03-05T04:08:16;13.80;;;9.80;;
67804;SDS011;54603;45.638;11.714;2023-03-05T04:10:42;11.90;;;9.40;;
67804;SDS011;54603;45.638;11.714;2023-03-05T04:13:07;13.70;;;9.90;;
67804;SDS011;54603;45.638;11.714;2023-03-05T04:15:33;13.10;;;9.60;;
67804;SDS011;54603;45.638;11.714;2023-03-05T04:17:59;13.50;;;10.20;;
67804;SDS011;54603;45.638;11.714;2023-03-05T04:20:25;11.70;;;9.70;;
67804;SDS011;54603;45.638;11.714;2023-03-05T04:22:50;11.90;;;9.90;;
67804;SDS011;54603;45.638;11.714;2023-03-05T04:25:16;11.10;;;9.40;;
67804;SDS011;54603;45.638;11.714;2023-03-05T04:27:42;11.20;;;9.70;;
67804;SDS011;54603;45.638;11.714;2023-03-05T04:30:08;12.70;;;9.70;;
67804;SDS011;54603;45.638;11.714;2023-03-05T04:32:41;11.00;;;9.30;;
67804;SDS011;54603;45.638;11.714;2023-03-05T04:35:07;13.50;;;10.50;;
67804;SDS011;54603;45.638;11.714;2023-03-05T04:37:32;13.30;;;9.90;;
67804;SDS011;54603;45.638;11.714;2023-03-05T04:39:58;12.00;;;10.00;;
67804;SDS011;54603;45.638;11.714;2023-03-05T04:42:24;11.90;;;9.40;;
67804;SDS011;54603;45.638;11.714;2023-03-05T04:44:49;12.00;;;9.70;;
67804;SDS011;54603;45.638;11.714;2023-03-05T04:47:15;11.50;;;9.90;;
67804;SDS011;54603;45.638;11.714;2023-03-05T04:49:41;10.50;;;9.40;;
67804;SDS011;54603;45.638;11.714;2023-03-05T04:52:07;12.30;;;10.10;;
67804;SDS011;54603;45.638;11.714;2023-03-05T04:54:34;11.40;;;9.40;;
67804;SDS011;54603;45.638;11.714;2023-03-05T04:56:59;11.80;;;9.10;;
67804;SDS011;54603;45.638;11.714;2023-03-05T04:59:25;11.50;;;9.20;;
67804;SDS011;54603;45.638;11.714;2023-03-05T05:01:51;13.50;;;9.90;;
67804;SDS011;54603;45.638;11.714;2023-03-05T05:04:16;12.20;;;9.70;;
67804;SDS011;54603;45.638;11.714;2023-03-05T05:06:42;12.50;;;10.00;;
67804;SDS011;54603;45.638;11.714;2023-03-05T05:09:07;12.10;;;9.90;;
67804;SDS011;54603;45.638;11.714;2023-03-05T05:11:33;14.20;;;9.70;;
67804;SDS011;54603;45.638;11.714;2023-03-05T05:13:58;12.20;;;9.70;;
67804;SDS011;54603;45.638;11.714;2023-03-05T05:16:24;11.80;;;9.60;;
67804;SDS011;54603;45.638;11.714;2023-03-05T05:18:49;11.60;;;9.50;;
67804;SDS011;54603;45.638;11.714;2023-03-05T05:21:15;12.30;;;10.00;;
67804;SDS011;54603;45.638;11.714;2023-03-05T05:23:42;12.40;;;9.60;;
67804;SDS011;54603;45.638;11.714;2023-03-05T05:26:09;12.10;;;9.70;;
67804;SDS011;54603;45.638;11.714;2023-03-05T05:28:38;13.50;;;9.80;;
67804;SDS011;54603;45.638;11.714;2023-03-05T05:31:07;12.40;;;9.60;;
67804;SDS011;54603;45.638;11.714;2023-03-05T05:33:33;14.50;;;10.20;;
67804;SDS011;54603;45.638;11.714;2023-03-05T05:36:01;12.20;;;9.70;;
67804;SDS011;54603;45.638;11.714;2023-03-05T05:38:28;11.50;;;9.90;;
67804;SDS011;54603;45.638;11.714;2023-03-05T05:40:53;12.60;;;9.90;;
67804;SDS011;54603;45.638;11.714;2023-03-05T05:43:19;11.50;;;9.40;;
67804;SDS011;54603;45.638;11.714;2023-03-05T05:45:44;12.50;;;10.20;;
67804;SDS011;54603;45.638;11.714;2023-03-05T05:48:10;11.70;;;9.80;;
67804;SDS011;54603;45.638;11.714;2023-03-05T05:50:36;11.80;;;9.30;;
67804;SDS011;54603;45.638;11.714;2023-03-05T05:53:03;13.00;;;10.30;;
67804;SDS011;54603;45.638;11.714;2023-03-05T05:55:28;11.70;;;9.60;;
67804;SDS011;54603;45.638;11.714;2023-03-05T05:57:54;11.90;;;9.90;;
67804;SDS011;54603;45.638;11.714;2023-03-05T06:00:20;12.40;;;10.10;;
67804;SDS011;54603;45.638;11.714;2023-03-05T06:02:45;13.40;;;9.60;;
67804;SDS011;54603;45.638;11.714;2023-03-05T06:05:12;10.90;;;9.00;;
67804;SDS011;54603;45.638;11.714;2023-03-05T06:07:39;12.00;;;9.50;;
67804;SDS011;54603;45.638;11.714;2023-03-05T06:10:05;11.40;;;9.30;;
67804;SDS011;54603;45.638;11.714;2023-03-05T06:12:31;11.00;;;9.80;;
67804;SDS011;54603;45.638;11.714;2023-03-05T06:14:56;12.70;;;10.20;;
67804;SDS011;54603;45.638;11.714;2023-03-05T06:17:22;11.70;;;9.70;;
67804;SDS011;54603;45.638;11.714;2023-03-05T06:19:47;11.80;;;9.70;;
67804;SDS011;54603;45.638;11.714;2023-03-05T06:22:13;12.10;;;9.90;;
67804;SDS011;54603;45.638;11.714;2023-03-05T06:24:38;11.00;;;9.80;;
67804;SDS011;54603;45.638;11.714;2023-03-05T06:27:04;11.90;;;9.80;;
67804;SDS011;54603;45.638;11.714;2023-03-05T06:29:30;12.00;;;9.50;;
67804;SDS011;54603;45.638;11.714;2023-03-05T06:31:56;11.80;;;9.60;;
67804;SDS011;54603;45.638;11.714;2023-03-05T06:34:21;12.40;;;9.60;;
67804;SDS011;54603;45.638;11.714;2023-03-05T06:36:47;12.30;;;9.40;;
67804;SDS011;54603;45.638;11.714;2023-03-05T06:39:13;12.70;;;10.20;;
67804;SDS011;54603;45.638;11.714;2023-03-05T06:41:39;12.10;;;9.80;;
67804;SDS011;54603;45.638;11.714;2023-03-05T06:44:07;11.70;;;9.30;;
67804;SDS011;54603;45.638;11.714;2023-03-05T06:46:34;11.80;;;9.70;;
67804;SDS011;54603;45.638;11.714;2023-03-05T06:49:04;10.80;;;9.10;;
67804;SDS011;54603;45.638;11.714;2023-03-05T06:51:34;10.80;;;9.30;;
67804;SDS011;54603;45.638;11.714;2023-03-05T06:54:03;11.40;;;9.00;;
67804;SDS011;54603;45.638;11.714;2023-03-05T06:56:30;11.40;;;9.20;;
67804;SDS011;54603;45.638;11.714;2023-03-05T06:58:55;11.10;;;9.30;;
67804;SDS011;54603;45.638;11.714;2023-03-05T07:01:21;10.70;;;9.10;;
67804;SDS011;54603;45.638;11.714;2023-03-05T07:03:48;12.80;;;9.40;;
67804;SDS011;54603;45.638;11.714;2023-03-05T07:06:15;11.90;;;9.60;;
67804;SDS011;54603;45.638;11.714;2023-03-05T07:08:41;11.90;;;8.90;;
67804;SDS011;54603;45.638;11.714;2023-03-05T07:11:09;12.10;;;8.70;;
67804;SDS011;54603;45.638;11.714;2023-03-05T07:13:41;11.70;;;9.90;;
67804;SDS011;54603;45.638;11.714;2023-03-05T07:16:08;12.20;;;9.20;;
67804;SDS011;54603;45.638;11.714;2023-03-05T07:18:36;11.20;;;9.20;;
67804;SDS011;54603;45.638;11.714;2023-03-05T07:21:02;10.10;;;8.50;;
67804;SDS011;54603;45.638;11.714;2023-03-05T07:23:29;10.40;;;8.80;;
67804;SDS011;54603;45.638;11.714;2023-03-05T07:25:54;10.80;;;8.70;;
67804;SDS011;54603;45.638;11.714;2023-03-05T07:28:20;11.20;;;9.50;;
67804;SDS011;54603;45.638;11.714;2023-03-05T07:30:53;13.20;;;9.30;;
67804;SDS011;54603;45.638;11.714;2023-03-05T07:33:22;12.50;;;9.60;;
67804;SDS011;54603;45.638;11.714;2023-03-05T07:35:48;11.60;;;9.20;;
67804;SDS011;54603;45.638;11.714;2023-03-05T07:38:14;14.80;;;10.10;;
67804;SDS011;54603;45.638;11.714;2023-03-05T07:40:40;10.50;;;9.40;;
67804;SDS011;54603;45.638;11.714;2023-03-05T07:43:09;12.90;;;10.40;;
67804;SDS011;54603;45.638;11.714;2023-03-05T07:45:44;14.90;;;10.30;;
67804;SDS011;54603;45.638;11.714;2023-03-05T07:48:17;12.70;;;9.80;;
67804;SDS011;54603;45.638;11.714;2023-03-05T07:50:59;14.00;;;10.10;;
67804;SDS011;54603;45.638;11.714;2023-03-05T07:53:26;11.40;;;9.60;;
67804;SDS011;54603;45.638;11.714;2023-03-05T07:55:54;11.60;;;9.80;;
67804;SDS011;54603;45.638;11.714;2023-03-05T07:58:20;11.70;;;9.50;;
67804;SDS011;54603;45.638;11.714;2023-03-05T08:00:47;11.50;;;9.30;;
67804;SDS011;54603;45.638;11.714;2023-03-05T08:03:13;13.40;;;9.50;;
67804;SDS011;54603;45.638;11.714;2023-03-05T08:05:41;11.20;;;9.20;;
67804;SDS011;54603;45.638;11.714;2023-03-05T08:08:07;11.60;;;9.10;;
67804;SDS011;54603;45.638;11.714;2023-03-05T08:10:33;12.50;;;9.30;;
67804;SDS011;54603;45.638;11.714;2023-03-05T08:13:01;10.70;;;8.70;;
67804;SDS011;54603;45.638;11.714;2023-03-05T08:15:27;11.10;;;8.80;;
67804;SDS011;54603;45.638;11.714;2023-03-05T08:17:54;12.10;;;8.80;;
67804;SDS011;54603;45.638;11.714;2023-03-05T08:20:20;10.30;;;8.40;;
67804;SDS011;54603;45.638;11.714;2023-03-05T08:22:46;11.60;;;8.50;;
67804;SDS011;54603;45.638;11.714;2023-03-05T08:25:12;10.80;;;8.70;;
67804;SDS011;54603;45.638;11.714;2023-03-05T08:27:39;11.60;;;8.20;;
67804;SDS011;54603;45.638;11.714;2023-03-05T08:30:08;9.10;;;8.20;;
67804;SDS011;54603;45.638;11.714;2023-03-05T08:32:35;11.10;;;8.40;;
67804;SDS011;54603;45.638;11.714;2023-03-05T08:35:01;13.00;;;8.60;;
67804;SDS011;54603;45.638;11.714;2023-03-05T08:37:28;10.10;;;8.30;;
67804;SDS011;54603;45.638;11.714;2023-03-05T08:39:55;10.70;;;8.60;;
67804;SDS011;54603;45.638;11.714;2023-03-05T08:42:21;8.70;;;7.60;;
67804;SDS011;54603;45.638;11.714;2023-03-05T08:44:47;11.40;;;8.50;;
67804;SDS011;54603;45.638;11.714;2023-03-05T08:47:13;11.10;;;8.50;;
67804;SDS011;54603;45.638;11.714;2023-03-05T08:49:38;12.00;;;8.40;;
67804;SDS011;54603;45.638;11.714;2023-03-05T08:52:04;10.40;;;8.50;;
67804;SDS011;54603;45.638;11.714;2023-03-05T08:54:29;11.30;;;8.70;;
67804;SDS011;54603;45.638;11.714;2023-03-05T08:56:55;12.70;;;8.10;;
67804;SDS011;54603;45.638;11.714;2023-03-05T08:59:21;12.20;;;8.40;;
67804;SDS011;54603;45.638;11.714;2023-03-05T09:01:46;13.00;;;8.70;;
67804;SDS011;54603;45.638;11.714;2023-03-05T09:04:13;11.90;;;8.00;;
67804;SDS011;54603;45.638;11.714;2023-03-05T09:06:44;13.30;;;9.00;;
67804;SDS011;54603;45.638;11.714;2023-03-05T09:09:10;11.40;;;8.80;;
67804;SDS011;54603;45.638;11.714;2023-03-05T09:11:39;13.80;;;8.50;;
67804;SDS011;54603;45.638;11.714;2023-03-05T09:14:07;14.90;;;9.00;;
67804;SDS011;54603;45.638;11.714;2023-03-05T09:16:32;13.50;;;9.30;;
67804;SDS011;54603;45.638;11.714;2023-03-05T09:19:00;13.60;;;8.50;;
67804;SDS011;54603;45.638;11.714;2023-03-05T09:21:26;13.10;;;8.90;;
67804;SDS011;54603;45.638;11.714;2023-03-05T09:23:53;11.70;;;8.60;;
67804;SDS011;54603;45.638;11.714;2023-03-05T09:26:23;13.50;;;8.60;;
67804;SDS011;54603;45.638;11.714;2023-03-05T09:28:50;14.10;;;9.10;;
67804;SDS011;54603;45.638;11.714;2023-03-05T09:31:15;11.10;;;8.40;;
67804;SDS011;54603;45.638;11.714;2023-03-05T09:33:41;10.20;;;7.90;;
67804;SDS011;54603;45.638;11.714;2023-03-05T09:36:21;11.80;;;8.30;;
67804;SDS011;54603;45.638;11.714;2023-03-05T09:38:48;9.60;;;8.50;;
67804;SDS011;54603;45.638;11.714;2023-03-05T09:47:14;10.90;;;8.80;;
67804;SDS011;54603;45.638;11.714;2023-03-05T09:49:55;12.60;;;9.30;;
67804;SDS011;54603;45.638;11.714;2023-03-05T09:52:33;18.20;;;9.60;;
67804;SDS011;54603;45.638;11.714;2023-03-05T09:55:12;12.20;;;9.40;;
67804;SDS011;54603;45.638;11.714;2023-03-05T09:57:42;13.10;;;9.30;;
67804;SDS011;54603;45.638;11.714;2023-03-05T10:00:33;12.90;;;8.30;;
67804;SDS011;54603;45.638;11.714;2023-03-05T10:02:57;11.90;;;9.20;;
67804;SDS011;54603;45.638;11.714;2023-03-05T10:08:31;14.40;;;9.30;;
67804;SDS011;54603;45.638;11.714;2023-03-05T10:11:23;12.40;;;9.60;;
67804;SDS011;54603;45.638;11.714;2023-03-05T10:14:13;11.70;;;9.10;;
67804;SDS011;54603;45.638;11.714;2023-03-05T10:19:52;15.40;;;9.10;;
67804;SDS011;54603;45.638;11.714;2023-03-05T10:22:21;16.30;;;9.60;;
67804;SDS011;54603;45.638;11.714;2023-03-05T10:35:12;13.10;;;9.40;;
67804;SDS011;54603;45.638;11.714;2023-03-05T10:38:23;13.10;;;9.10;;
67804;SDS011;54603;45.638;11.714;2023-03-05T10:40:56;13.60;;;9.70;;
67804;SDS011;54603;45.638;11.714;2023-03-05T10:46:01;14.50;;;10.10;;
67804;SDS011;54603;45.638;11.714;2023-03-05T10:48:35;14.10;;;10.10;;
67804;SDS011;54603;45.638;11.714;2023-03-05T10:51:27;13.30;;;9.60;;
67804;SDS011;54603;45.638;11.714;2023-03-05T10:56:36;14.60;;;10.00;;
67804;SDS011;54603;45.638;11.714;2023-03-05T10:59:02;14.50;;;9.60;;
67804;SDS011;54603;45.638;11.714;2023-03-05T11:01:28;15.70;;;10.50;;
67804;SDS011;54603;45.638;11.714;2023-03-05T11:03:59;14.10;;;10.80;;
67804;SDS011;54603;45.638;11.714;2023-03-05T11:08:54;15.00;;;10.40;;
67804;SDS011;54603;45.638;11.714;2023-03-05T11:11:21;17.20;;;11.20;;
67804;SDS011;54603;45.638;11.714;2023-03-05T11:16:25;19.10;;;11.50;;
67804;SDS011;54603;45.638;11.714;2023-03-05T11:19:16;17.60;;;11.50;;
67804;SDS011;54603;45.638;11.714;2023-03-05T11:21:44;17.00;;;12.10;;
67804;SDS011;54603;45.638;11.714;2023-03-05T11:24:13;20.50;;;11.50;;
67804;SDS011;54603;45.638;11.714;2023-03-05T11:26:50;15.90;;;11.30;;
67804;SDS011;54603;45.638;11.714;2023-03-05T11:29:21;18.60;;;11.20;;
67804;SDS011;54603;45.638;11.714;2023-03-05T11:31:49;19.30;;;11.90;;
67804;SDS011;54603;45.638;11.714;2023-03-05T11:36:42;17.10;;;12.60;;
67804;SDS011;54603;45.638;11.714;2023-03-05T11:39:09;15.40;;;11.90;;
67804;SDS011;54603;45.638;11.714;2023-03-05T11:46:51;18.50;;;12.60;;
67804;SDS011;54603;45.638;11.714;2023-03-05T11:49:25;17.70;;;12.50;;
67804;SDS011;54603;45.638;11.714;2023-03-05T11:57:32;20.50;;;12.90;;
67804;SDS011;54603;45.638;11.714;2023-03-05T12:00:04;16.90;;;12.80;;
67804;SDS011;54603;45.638;11.714;2023-03-05T12:02:37;18.60;;;13.20;;
67804;SDS011;54603;45.638;11.714;2023-03-05T12:05:04;19.50;;;13.00;;
67804;SDS011;54603;45.638;11.714;2023-03-05T12:07:36;19.50;;;12.90;;
67804;SDS011;54603;45.638;11.714;2023-03-05T12:10:05;19.40;;;12.80;;
67804;SDS011;54603;45.638;11.714;2023-03-05T12:12:43;17.50;;;12.80;;
67804;SDS011;54603;45.638;11.714;2023-03-05T12:23:45;18.70;;;13.50;;
67804;SDS011;54603;45.638;11.714;2023-03-05T12:26:16;21.10;;;13.30;;
67804;SDS011;54603;45.638;11.714;2023-03-05T12:37:10;23.60;;;14.40;;
67804;SDS011;54603;45.638;11.714;2023-03-05T12:39:45;20.20;;;13.90;;
67804;SDS011;54603;45.638;11.714;2023-03-05T12:47:45;23.00;;;14.80;;
67804;SDS011;54603;45.638;11.714;2023-03-05T12:53:15;20.50;;;14.00;;
67804;SDS011;54603;45.638;11.714;2023-03-05T12:58:17;19.60;;;13.60;;
67804;SDS011;54603;45.638;11.714;2023-03-05T13:00:49;21.90;;;13.60;;
67804;SDS011;54603;45.638;11.714;2023-03-05T13:03:26;17.50;;;13.10;;
67804;SDS011;54603;45.638;11.714;2023-03-05T13:05:55;20.20;;;14.20;;
67804;SDS011;54603;45.638;11.714;2023-03-05T13:08:24;20.00;;;13.70;;
67804;SDS011;54603;45.638;11.714;2023-03-05T13:10:51;20.30;;;13.80;;
67804;SDS011;54603;45.638;11.714;2023-03-05T13:13:22;19.40;;;13.90;;
67804;SDS011;54603;45.638;11.714;2023-03-05T13:15:50;17.10;;;13.00;;
67804;SDS011;54603;45.638;11.714;2023-03-05T13:18:18;18.90;;;12.50;;
67804;SDS011;54603;45.638;11.714;2023-03-05T13:23:21;18.30;;;11.70;;
67804;SDS011;54603;45.638;11.714;2023-03-05T13:25:59;16.60;;;11.80;;
67804;SDS011;54603;45.638;11.714;2023-03-05T13:28:28;20.10;;;13.00;;
67804;SDS011;54603;45.638;11.714;2023-03-05T13:30:56;18.00;;;12.80;;
67804;SDS011;54603;45.638;11.714;2023-03-05T13:33:33;20.60;;;12.70;;
67804;SDS011;54603;45.638;11.714;2023-03-05T13:36:00;18.70;;;12.30;;
67804;SDS011;54603;45.638;11.714;2023-03-05T13:41:07;15.70;;;12.10;;
67804;SDS011;54603;45.638;11.714;2023-03-05T13:43:44;18.10;;;11.80;;
67804;SDS011;54603;45.638;11.714;2023-03-05T13:46:10;15.80;;;11.60;;
67804;SDS011;54603;45.638;11.714;2023-03-05T13:48:36;17.90;;;10.60;;
67804;SDS011;54603;45.638;11.714;2023-03-05T13:51:01;15.40;;;11.60;;
67804;SDS011;54603;45.638;11.714;2023-03-05T13:53:31;14.30;;;10.20;;
67804;SDS011;54603;45.638;11.714;2023-03-05T13:55:59;12.70;;;10.00;;
67804;SDS011;54603;45.638;11.714;2023-03-05T14:03:49;16.00;;;10.20;;
67804;SDS011;54603;45.638;11.714;2023-03-05T14:06:17;14.20;;;10.50;;
67804;SDS011;54603;45.638;11.714;2023-03-05T14:08:48;15.70;;;9.60;;
67804;SDS011;54603;45.638;11.714;2023-03-05T14:11:15;12.50;;;8.90;;
67804;SDS011;54603;45.638;11.714;2023-03-05T14:13:42;15.40;;;9.90;;
67804;SDS011;54603;45.638;11.714;2023-03-05T14:16:09;12.60;;;9.10;;
67804;SDS011;54603;45.638;11.714;2023-03-05T14:18:37;13.10;;;9.20;;
67804;SDS011;54603;45.638;11.714;2023-03-05T14:21:04;14.00;;;9.00;;
67804;SDS011;54603;45.638;11.714;2023-03-05T14:23:43;14.10;;;9.00;;
67804;SDS011;54603;45.638;11.714;2023-03-05T14:26:23;14.20;;;8.90;;
67804;SDS011;54603;45.638;11.714;2023-03-05T14:28:53;11.30;;;8.90;;
67804;SDS011;54603;45.638;11.714;2023-03-05T14:31:25;14.60;;;9.40;;
67804;SDS011;54603;45.638;11.714;2023-03-05T14:33:51;11.80;;;9.20;;
67804;SDS011;54603;45.638;11.714;2023-03-05T14:36:21;11.10;;;8.60;;
67804;SDS011;54603;45.638;11.714;2023-03-05T14:38:48;13.60;;;8.90;;
67804;SDS011;54603;45.638;11.714;2023-03-05T14:41:35;13.70;;;8.70;;
67804;SDS011;54603;45.638;11.714;2023-03-05T14:44:11;13.10;;;9.10;;
67804;SDS011;54603;45.638;11.714;2023-03-05T14:46:40;10.10;;;8.40;;
67804;SDS011;54603;45.638;11.714;2023-03-05T14:49:06;11.60;;;8.40;;
67804;SDS011;54603;45.638;11.714;2023-03-05T14:51:32;10.90;;;8.50;;
67804;SDS011;54603;45.638;11.714;2023-03-05T14:54:02;12.00;;;8.40;;
67804;SDS011;54603;45.638;11.714;2023-03-05T14:56:28;9.70;;;7.50;;
67804;SDS011;54603;45.638;11.714;2023-03-05T14:58:54;10.30;;;7.60;;
67804;SDS011;54603;45.638;11.714;2023-03-05T15:01:24;9.30;;;7.40;;
67804;SDS011;54603;45.638;11.714;2023-03-05T15:03:53;12.20;;;8.50;;
67804;SDS011;54603;45.638;11.714;2023-03-05T15:06:29;12.30;;;8.20;;
67804;SDS011;54603;45.638;11.714;2023-03-05T15:08:58;9.90;;;7.40;;
67804;SDS011;54603;45.638;11.714;2023-03-05T15:11:25;10.90;;;7.70;;
67804;SDS011;54603;45.638;11.714;2023-03-05T15:13:56;10.80;;;7.50;;
67804;SDS011;54603;45.638;11.714;2023-03-05T15:16:22;9.70;;;6.80;;
67804;SDS011;54603;45.638;11.714;2023-03-05T15:18:48;10.20;;;7.30;;
67804;SDS011;54603;45.638;11.714;2023-03-05T15:21:15;9.90;;;7.10;;
67804;SDS011;54603;45.638;11.714;2023-03-05T15:23:42;8.10;;;7.30;;
67804;SDS011;54603;45.638;11.714;2023-03-05T15:26:11;11.50;;;6.90;;
67804;SDS011;54603;45.638;11.714;2023-03-05T15:28:38;9.90;;;7.20;;
67804;SDS011;54603;45.638;11.714;2023-03-05T15:31:05;9.60;;;7.10;;
67804;SDS011;54603;45.638;11.714;2023-03-05T15:33:31;9.20;;;6.50;;
67804;SDS011;54603;45.638;11.714;2023-03-05T15:35:57;8.90;;;6.50;;
67804;SDS011;54603;45.638;11.714;2023-03-05T15:38:23;8.70;;;7.00;;
67804;SDS011;54603;45.638;11.714;2023-03-05T15:40:49;10.40;;;7.20;;
67804;SDS011;54603;45.638;11.714;2023-03-05T15:43:15;9.30;;;7.20;;
67804;SDS011;54603;45.638;11.714;2023-03-05T15:45:41;9.50;;;7.10;;
67804;SDS011;54603;45.638;11.714;2023-03-05T15:48:07;11.70;;;7.30;;
67804;SDS011;54603;45.638;11.714;2023-03-05T15:50:33;11.50;;;8.50;;
67804;SDS011;54603;45.638;11.714;2023-03-05T15:52:58;14.60;;;8.80;;
67804;SDS011;54603;45.638;11.714;2023-03-05T15:55:24;12.30;;;9.10;;